createdAt,value
2023-01-20T00:01:47.376Z,2.42
2023-01-20T00:04:16.238Z,2.05
2023-01-20T00:06:44.615Z,0.75
2023-01-20T00:09:17.828Z,1.60
2023-01-20T00:11:46.895Z,0.80
2023-01-20T00:14:15.741Z,2.70
2023-01-20T00:16:44.442Z,1.85
2023-01-20T00:19:17.119Z,1.38
2023-01-20T00:21:45.775Z,2.03
2023-01-20T00:24:14.048Z,0.73
2023-01-20T00:26:42.377Z,1.13
2023-01-20T00:29:11.157Z,1.25
2023-01-20T00:31:39.690Z,2.00
2023-01-20T00:34:08.105Z,1.20
2023-01-20T00:36:36.434Z,4.28
2023-01-20T00:39:05.544Z,1.08
2023-01-20T00:41:34.035Z,1.35
2023-01-20T00:44:02.457Z,1.13
2023-01-20T00:46:30.817Z,1.63
2023-01-20T00:48:59.163Z,0.98
2023-01-20T00:51:27.618Z,1.13
2023-01-20T00:53:56.157Z,2.63
2023-01-20T00:56:24.490Z,2.35
2023-01-20T00:58:52.893Z,3.60
2023-01-20T01:01:21.424Z,1.23
2023-01-20T01:03:49.810Z,1.67
2023-01-20T01:06:19.157Z,2.55
2023-01-20T01:08:47.808Z,1.73
2023-01-20T01:11:16.330Z,2.00
2023-01-20T01:13:44.681Z,1.98
2023-01-20T01:16:15.147Z,0.90
2023-01-20T01:18:44.466Z,1.38
2023-01-20T01:21:15.991Z,0.60
2023-01-20T01:23:45.041Z,2.25
2023-01-20T01:26:14.120Z,1.55
2023-01-20T01:28:42.557Z,1.15
2023-01-20T01:31:11.446Z,1.38
2023-01-20T01:33:40.193Z,1.75
2023-01-20T01:36:12.976Z,3.97
2023-01-20T01:38:41.583Z,1.23
2023-01-20T01:41:15.060Z,1.10
2023-01-20T01:44:02.303Z,1.85
2023-01-20T01:46:30.657Z,1.70
2023-01-20T01:49:02.463Z,2.22
2023-01-20T01:51:40.536Z,1.67
2023-01-20T01:54:14.426Z,1.45
2023-01-20T01:56:44.726Z,1.73
2023-01-20T01:59:15.358Z,1.58
2023-01-20T02:01:49.625Z,1.52
2023-01-20T02:04:21.969Z,0.93
2023-01-20T02:07:11.545Z,1.70
2023-01-20T02:09:40.413Z,1.23
2023-01-20T02:12:15.799Z,1.00
2023-01-20T02:14:48.530Z,1.00
2023-01-20T02:17:35.296Z,1.10
2023-01-20T02:20:16.431Z,1.20
2023-01-20T02:23:19.328Z,2.03
2023-01-20T02:26:08.710Z,1.00
2023-01-20T02:29:10.288Z,0.85
2023-01-20T02:32:08.562Z,2.05
2023-01-20T02:34:46.190Z,4.30
2023-01-20T02:37:19.720Z,1.35
2023-01-20T02:39:56.854Z,4.13
2023-01-20T02:43:00.013Z,3.00
2023-01-20T02:45:46.718Z,1.95
2023-01-20T02:48:50.166Z,4.55
2023-01-20T02:51:21.317Z,3.78
2023-01-20T02:53:54.198Z,7.93
2023-01-20T02:56:27.619Z,9.38
2023-01-20T02:59:04.186Z,11.23
2023-01-20T03:01:56.686Z,8.27
2023-01-20T03:04:30.748Z,6.03
2023-01-20T03:07:01.313Z,7.38
2023-01-20T03:09:38.966Z,5.45
2023-01-20T03:12:23.310Z,4.75
2023-01-20T03:14:53.586Z,5.43
2023-01-20T03:17:23.137Z,5.15
2023-01-20T03:19:51.526Z,4.78
2023-01-20T03:22:19.912Z,4.80
2023-01-20T03:24:49.889Z,6.05
2023-01-20T03:27:18.218Z,4.38
2023-01-20T03:29:46.636Z,2.30
2023-01-20T03:32:16.046Z,3.10
2023-01-20T03:34:45.447Z,4.70
2023-01-20T03:37:14.192Z,3.80
2023-01-20T03:39:42.527Z,2.88
2023-01-20T03:42:17.745Z,4.22
2023-01-20T03:45:02.793Z,4.63
2023-01-20T03:50:52.869Z,3.78
2023-01-20T03:53:33.704Z,4.18
2023-01-20T03:56:12.910Z,3.70
2023-01-20T03:58:45.437Z,4.90
2023-01-20T04:01:17.775Z,5.05
2023-01-20T04:03:49.850Z,3.90
2023-01-20T04:06:20.931Z,4.25
2023-01-20T04:08:57.015Z,4.88
2023-01-20T04:11:25.657Z,4.85
2023-01-20T04:13:54.249Z,3.35
2023-01-20T04:16:24.787Z,4.25
2023-01-20T04:18:54.489Z,4.38
2023-01-20T04:21:43.912Z,6.40
2023-01-20T04:24:41.911Z,5.93
2023-01-20T04:27:10.289Z,7.50
2023-01-20T04:29:38.679Z,14.60
2023-01-20T04:32:07.171Z,11.30
2023-01-20T04:34:35.543Z,10.50
2023-01-20T04:37:03.938Z,7.68
2023-01-20T04:39:32.249Z,7.80
2023-01-20T04:42:00.650Z,6.25
2023-01-20T04:44:28.928Z,6.40
2023-01-20T04:47:00.728Z,6.72
2023-01-20T04:49:29.397Z,6.05
2023-01-20T04:51:57.866Z,6.05
2023-01-20T04:54:26.157Z,5.38
2023-01-20T04:56:54.469Z,4.65
2023-01-20T04:59:22.897Z,7.07
2023-01-20T05:01:51.273Z,6.38
2023-01-20T05:04:19.654Z,4.22
2023-01-20T05:06:47.920Z,6.18
2023-01-20T05:09:17.342Z,7.28
2023-01-20T05:11:45.960Z,6.13
2023-01-20T05:14:14.517Z,5.00
2023-01-20T05:16:42.848Z,4.70
2023-01-20T05:19:13.377Z,5.45
2023-01-20T05:21:43.533Z,6.03
2023-01-20T05:24:12.203Z,4.88
2023-01-20T05:26:40.504Z,7.15
2023-01-20T05:29:10.053Z,6.15
2023-01-20T05:31:44.227Z,7.55
2023-01-20T05:34:13.008Z,6.45
2023-01-20T05:36:41.453Z,6.63
2023-01-20T05:39:09.794Z,6.32
2023-01-20T05:41:38.102Z,5.30
2023-01-20T05:44:06.877Z,5.57
2023-01-20T05:46:35.383Z,6.95
2023-01-20T05:49:03.985Z,6.95
2023-01-20T05:51:33.298Z,4.63
2023-01-20T05:54:01.563Z,6.40
2023-01-20T05:56:29.870Z,6.90
2023-01-20T05:58:58.176Z,6.07
2023-01-20T06:01:26.581Z,8.20
2023-01-20T06:03:54.960Z,6.40
2023-01-20T06:06:23.521Z,6.40
2023-01-20T06:08:53.945Z,7.07
2023-01-20T06:11:22.337Z,6.25
2023-01-20T06:13:51.222Z,5.65
2023-01-20T06:16:20.539Z,4.53
2023-01-20T06:18:48.832Z,5.15
2023-01-20T06:21:17.179Z,5.10
2023-01-20T06:23:45.567Z,6.82
2023-01-20T06:26:15.226Z,5.05
2023-01-20T06:28:43.913Z,4.50
2023-01-20T06:31:17.747Z,5.90
2023-01-20T06:33:46.134Z,6.13
2023-01-20T06:36:16.650Z,5.13
2023-01-20T06:38:49.352Z,5.28
2023-01-20T06:41:19.764Z,4.65
2023-01-20T06:43:48.550Z,5.95
2023-01-20T06:46:18.058Z,5.55
2023-01-20T06:48:47.250Z,5.22
2023-01-20T06:51:20.679Z,4.57
2023-01-20T06:53:49.029Z,6.20
2023-01-20T06:56:17.577Z,5.50
2023-01-20T06:58:46.032Z,8.93
2023-01-20T07:01:23.056Z,5.97
2023-01-20T07:03:51.713Z,8.02
2023-01-20T07:06:24.339Z,9.05
2023-01-20T07:08:52.763Z,7.90
2023-01-20T07:11:22.179Z,6.05
2023-01-20T07:13:50.702Z,6.70
2023-01-20T07:16:19.114Z,7.80
2023-01-20T07:18:52.078Z,7.35
2023-01-20T07:21:21.393Z,8.43
2023-01-20T07:23:50.302Z,7.50
2023-01-20T07:26:20.864Z,5.65
2023-01-20T07:28:49.875Z,6.75
2023-01-20T07:31:25.668Z,9.38
2023-01-20T07:33:57.120Z,6.05
2023-01-20T07:36:25.873Z,5.68
2023-01-20T07:38:55.163Z,7.47
2023-01-20T07:41:23.854Z,6.82
2023-01-20T07:43:54.070Z,6.35
2023-01-20T07:46:22.444Z,5.20
2023-01-20T07:48:50.764Z,6.78
2023-01-20T07:51:19.711Z,5.22
2023-01-20T07:53:51.756Z,6.82
2023-01-20T07:56:23.405Z,7.07
2023-01-20T07:58:52.613Z,8.18
2023-01-20T08:01:24.832Z,6.05
2023-01-20T08:03:53.853Z,7.07
2023-01-20T08:06:24.693Z,5.88
2023-01-20T08:08:53.370Z,6.43
2023-01-20T08:11:23.279Z,7.47
2023-01-20T08:13:51.770Z,5.88
2023-01-20T08:16:20.557Z,6.95
2023-01-20T08:18:49.146Z,6.85
2023-01-20T08:21:23.558Z,6.43
2023-01-20T08:23:52.131Z,5.60
2023-01-20T08:26:20.657Z,6.07
2023-01-20T08:28:49.358Z,7.50
2023-01-20T08:31:22.162Z,7.55
2023-01-20T08:33:54.556Z,6.13
2023-01-20T08:36:26.679Z,6.82
2023-01-20T08:38:57.012Z,6.05
2023-01-20T08:41:31.406Z,11.18
2023-01-20T08:44:01.911Z,4.05
2023-01-20T08:46:30.348Z,5.43
2023-01-20T08:48:59.157Z,7.85
2023-01-20T08:51:32.459Z,7.10
2023-01-20T08:54:01.890Z,5.80
2023-01-20T08:56:31.009Z,7.05
2023-01-20T08:58:59.564Z,5.20
2023-01-20T09:01:30.344Z,4.72
2023-01-20T09:04:05.857Z,4.80
2023-01-20T09:06:47.531Z,5.32
2023-01-20T09:09:18.698Z,4.72
2023-01-20T09:11:51.723Z,5.63
2023-01-20T09:14:21.557Z,5.70
2023-01-20T09:16:50.117Z,4.22
2023-01-20T09:19:18.651Z,5.40
2023-01-20T09:21:47.095Z,6.45
2023-01-20T09:24:15.525Z,6.00
2023-01-20T09:26:44.105Z,4.28
2023-01-20T09:29:14.448Z,6.13
2023-01-20T09:31:51.230Z,4.35
2023-01-20T09:34:25.216Z,4.32
2023-01-20T09:36:59.069Z,6.25
2023-01-20T09:39:45.511Z,5.63
2023-01-20T09:43:03.908Z,5.88
2023-01-20T09:45:58.161Z,4.60
2023-01-20T09:49:03.254Z,4.78
2023-01-20T09:52:02.967Z,6.00
2023-01-20T09:54:39.731Z,5.03
2023-01-20T09:57:11.107Z,5.57
2023-01-20T09:59:51.009Z,4.88
2023-01-20T10:02:26.460Z,4.57
2023-01-20T10:05:01.673Z,4.68
2023-01-20T10:07:39.568Z,6.60
2023-01-20T10:10:34.624Z,6.43
2023-01-20T10:13:20.763Z,5.93
2023-01-20T10:15:56.047Z,6.70
2023-01-20T10:18:33.429Z,5.35
2023-01-20T10:21:11.713Z,6.55
2023-01-20T10:23:48.457Z,4.97
2023-01-20T10:26:23.378Z,5.93
2023-01-20T10:29:00.461Z,7.22
2023-01-20T10:31:32.966Z,6.93
2023-01-20T10:34:13.008Z,8.88
2023-01-20T10:36:47.833Z,7.60
2023-01-20T10:39:43.597Z,7.82
2023-01-20T10:42:14.638Z,7.95
2023-01-20T10:44:43.679Z,6.40
2023-01-20T10:47:29.679Z,7.50
2023-01-20T10:50:15.954Z,7.85
2023-01-20T10:53:16.672Z,6.82
2023-01-20T10:55:47.553Z,7.60
2023-01-20T10:58:25.160Z,7.55
2023-01-20T11:00:53.855Z,6.97
2023-01-20T11:03:24.006Z,6.68
2023-01-20T11:05:53.627Z,4.05
2023-01-20T11:08:30.473Z,4.25
2023-01-20T11:11:02.369Z,6.40
2023-01-20T11:13:30.803Z,4.68
2023-01-20T11:16:03.724Z,3.72
2023-01-20T11:18:33.102Z,4.28
2023-01-20T11:21:10.437Z,4.60
2023-01-20T11:23:49.164Z,4.25
2023-01-20T11:26:33.765Z,4.22
2023-01-20T11:29:38.573Z,2.58
2023-01-20T11:32:25.299Z,2.90
2023-01-20T11:34:55.122Z,4.32
2023-01-20T11:37:29.133Z,2.83
2023-01-20T11:39:59.091Z,2.13
2023-01-20T11:42:42.164Z,4.05
2023-01-20T11:45:28.945Z,3.25
2023-01-20T11:48:22.409Z,2.40
2023-01-20T11:50:58.287Z,2.90
2023-01-20T11:53:33.086Z,2.58
2023-01-20T11:58:49.775Z,2.03
2023-01-20T12:01:27.664Z,3.13
2023-01-20T12:04:01.778Z,1.30
2023-01-20T12:06:38.034Z,1.33
2023-01-20T12:09:16.805Z,2.10
2023-01-20T12:12:06.052Z,1.73
2023-01-20T12:14:39.710Z,2.33
2023-01-20T12:17:30.907Z,1.30
2023-01-20T12:20:19.232Z,2.60
2023-01-20T12:23:06.937Z,1.77
2023-01-20T12:25:56.629Z,1.33
2023-01-20T12:29:06.636Z,1.92
2023-01-20T12:31:35.633Z,2.53
2023-01-20T12:34:13.987Z,2.55
2023-01-20T12:37:14.470Z,1.48
2023-01-20T12:40:05.795Z,1.63
2023-01-20T12:42:39.983Z,2.20
2023-01-20T12:45:34.666Z,2.15
2023-01-20T12:48:08.649Z,1.85
2023-01-20T12:50:36.897Z,1.80
2023-01-20T12:53:23.193Z,1.83
2023-01-20T12:56:25.653Z,1.50
2023-01-20T12:58:59.302Z,1.02
2023-01-20T13:01:51.782Z,2.13
2023-01-20T13:04:41.006Z,1.50
2023-01-20T13:07:42.788Z,1.25
2023-01-20T13:10:38.495Z,1.88
2023-01-20T13:13:29.423Z,2.58
2023-01-20T13:16:34.783Z,1.33
2023-01-20T13:19:16.514Z,2.25
2023-01-20T13:21:44.842Z,2.95
2023-01-20T13:24:30.236Z,2.40
2023-01-20T13:27:01.187Z,2.17
2023-01-20T13:29:38.329Z,1.63
2023-01-20T13:32:33.922Z,1.35
2023-01-20T13:35:23.123Z,1.67
2023-01-20T13:38:19.548Z,1.67
2023-01-20T13:40:54.254Z,1.65
2023-01-20T13:46:06.708Z,1.17
2023-01-20T13:48:39.462Z,0.85
2023-01-20T13:51:16.892Z,2.47
2023-01-20T13:53:45.348Z,0.70
2023-01-20T13:56:31.351Z,1.50
2023-01-20T13:59:00.165Z,1.17
2023-01-20T14:01:29.300Z,2.10
2023-01-20T14:04:17.462Z,1.10
2023-01-20T14:06:53.452Z,1.23
2023-01-20T14:09:26.983Z,2.63
2023-01-20T14:12:01.342Z,2.03
2023-01-20T14:14:29.613Z,2.20
2023-01-20T14:16:58.395Z,3.63
2023-01-20T14:19:33.310Z,1.05
2023-01-20T14:22:19.311Z,1.25
2023-01-20T14:24:50.457Z,2.13
2023-01-20T14:27:23.470Z,1.25
2023-01-20T14:29:56.551Z,1.50
2023-01-20T14:32:34.759Z,1.73
2023-01-20T14:35:05.573Z,2.05
2023-01-20T14:37:35.824Z,1.33
2023-01-20T14:40:28.834Z,1.67
2023-01-20T14:42:59.249Z,2.70
2023-01-20T14:45:30.781Z,1.05
2023-01-20T14:48:01.848Z,1.38
2023-01-20T14:50:30.741Z,1.73
2023-01-20T14:52:59.087Z,2.25
2023-01-20T14:55:37.489Z,1.63
2023-01-20T14:58:18.722Z,1.50
2023-01-20T15:00:49.813Z,1.67
2023-01-20T15:03:29.183Z,2.22
2023-01-20T15:06:10.877Z,0.75
2023-01-20T15:08:39.268Z,1.67
2023-01-20T15:11:19.073Z,1.27
2023-01-20T15:13:55.986Z,1.85
2023-01-20T15:16:37.560Z,1.58
2023-01-20T15:19:18.199Z,1.67
2023-01-20T15:21:53.847Z,1.83
2023-01-20T15:24:36.107Z,1.60
2023-01-20T15:27:20.993Z,1.30
2023-01-20T15:30:30.958Z,1.63
2023-01-20T15:32:59.289Z,2.17
2023-01-20T15:35:27.877Z,1.48
2023-01-20T15:37:56.240Z,1.65
2023-01-20T15:40:26.287Z,1.20
2023-01-20T15:42:54.560Z,1.40
2023-01-20T15:45:23.105Z,0.55
2023-01-20T15:47:51.467Z,1.00
2023-01-20T15:50:22.730Z,1.10
2023-01-20T15:52:51.448Z,1.77
2023-01-20T15:55:20.879Z,1.92
2023-01-20T15:57:53.100Z,1.85
2023-01-20T16:00:24.329Z,1.58
2023-01-20T16:02:52.875Z,3.42
2023-01-20T16:05:21.768Z,3.13
2023-01-20T16:07:51.157Z,3.63
2023-01-20T16:10:20.913Z,0.93
2023-01-20T16:12:49.448Z,1.20
2023-01-20T16:15:19.150Z,1.05
2023-01-20T16:17:47.598Z,0.77
2023-01-20T16:20:27.949Z,2.85
2023-01-20T16:22:57.737Z,1.35
2023-01-20T16:25:26.748Z,1.23
2023-01-20T16:27:55.040Z,1.27
2023-01-20T16:30:24.157Z,1.77
2023-01-20T16:32:53.176Z,1.50
2023-01-20T16:35:24.319Z,1.60
2023-01-20T16:37:53.676Z,1.83
2023-01-20T16:40:22.912Z,1.20
2023-01-20T16:42:51.248Z,1.08
2023-01-20T16:45:26.573Z,0.57
2023-01-20T16:47:55.253Z,1.45
2023-01-20T16:50:23.758Z,1.80
2023-01-20T16:52:52.059Z,1.30
2023-01-20T16:55:21.041Z,0.88
2023-01-20T16:57:49.384Z,0.85
2023-01-20T17:00:19.101Z,0.82
2023-01-20T17:02:52.184Z,0.95
2023-01-20T17:05:23.394Z,1.75
2023-01-20T17:07:51.767Z,0.75
2023-01-20T17:10:21.122Z,0.50
2023-01-20T17:12:49.805Z,1.58
2023-01-20T17:15:18.302Z,0.55
2023-01-20T17:17:56.614Z,1.05
2023-01-20T17:20:27.131Z,0.55
2023-01-20T17:22:58.994Z,0.85
2023-01-20T17:25:27.445Z,2.28
2023-01-20T17:27:55.758Z,0.77
2023-01-20T17:30:26.180Z,0.98
2023-01-20T17:32:54.793Z,1.02
2023-01-20T17:35:23.109Z,1.45
2023-01-20T17:37:51.474Z,0.82
2023-01-20T17:40:19.828Z,0.68
2023-01-20T17:42:48.289Z,1.20
2023-01-20T17:45:16.677Z,1.20
2023-01-20T17:47:45.086Z,1.00
2023-01-20T17:50:13.666Z,0.90
2023-01-20T17:52:42.276Z,0.80
2023-01-20T17:55:11.179Z,1.38
2023-01-20T17:57:39.471Z,0.70
2023-01-20T18:00:08.521Z,1.08
2023-01-20T18:02:36.926Z,1.25
2023-01-20T18:05:05.607Z,1.98
2023-01-20T18:07:33.956Z,1.73
2023-01-20T18:10:02.276Z,0.80
2023-01-20T18:12:30.639Z,0.65
2023-01-20T18:14:59.638Z,0.43
2023-01-20T18:17:27.961Z,0.77
2023-01-20T18:19:56.251Z,0.63
2023-01-20T18:22:24.553Z,0.77
2023-01-20T18:24:52.849Z,1.20
2023-01-20T18:27:21.155Z,0.70
2023-01-20T18:29:51.076Z,2.35
2023-01-20T18:32:19.444Z,0.60
2023-01-20T18:34:47.723Z,0.98
2023-01-20T18:37:16.048Z,1.65
2023-01-20T18:39:44.982Z,0.95
2023-01-20T18:42:13.414Z,0.40
2023-01-20T18:44:41.828Z,1.05
2023-01-20T18:47:10.112Z,1.58
2023-01-20T18:49:38.473Z,2.13
2023-01-20T18:52:07.038Z,1.23
2023-01-20T18:54:38.046Z,0.95
2023-01-20T18:57:08.770Z,0.40
2023-01-20T18:59:37.577Z,1.90
2023-01-20T19:02:05.816Z,0.85
2023-01-20T19:04:36.464Z,1.08
2023-01-20T19:07:04.874Z,2.60
2023-01-20T19:09:33.168Z,0.50
2023-01-20T19:12:01.488Z,1.02
2023-01-20T19:14:29.783Z,1.58
2023-01-20T19:16:58.088Z,0.43
2023-01-20T19:19:26.423Z,0.50
2023-01-20T19:21:54.662Z,0.32
2023-01-20T19:24:23.045Z,0.47
2023-01-20T19:26:51.374Z,0.65
2023-01-20T19:29:20.573Z,0.95
2023-01-20T19:31:49.949Z,2.80
2023-01-20T19:34:18.237Z,2.58
2023-01-20T19:36:46.661Z,0.60
2023-01-20T19:39:15.087Z,1.52
2023-01-20T19:41:44.553Z,0.47
2023-01-20T19:44:14.425Z,0.57
2023-01-20T19:46:42.841Z,0.40
2023-01-20T19:49:12.583Z,0.70
2023-01-20T19:51:43.123Z,0.52
2023-01-20T19:54:13.738Z,0.50
2023-01-20T19:56:42.318Z,1.33
2023-01-20T19:59:14.524Z,0.60
2023-01-20T20:01:42.940Z,0.50
2023-01-20T20:04:16.158Z,2.25
2023-01-20T20:06:48.700Z,0.50
2023-01-20T20:09:19.013Z,0.50
2023-01-20T20:11:48.546Z,0.95
2023-01-20T20:14:19.814Z,0.68
2023-01-20T20:16:48.951Z,0.50
2023-01-20T20:19:20.233Z,0.60
2023-01-20T20:21:49.062Z,0.60
2023-01-20T20:24:19.395Z,0.50
2023-01-20T20:26:48.654Z,0.65
2023-01-20T20:29:19.465Z,3.10
2023-01-20T20:31:48.114Z,1.00
2023-01-20T20:34:19.105Z,0.50
2023-01-20T20:36:47.662Z,0.60
2023-01-20T20:39:18.155Z,0.90
2023-01-20T20:41:47.491Z,0.75
2023-01-20T20:44:15.962Z,0.50
2023-01-20T20:46:44.615Z,0.50
2023-01-20T20:49:16.535Z,1.75
2023-01-20T20:51:45.124Z,0.82
2023-01-20T20:54:17.866Z,1.83
2023-01-20T20:56:46.831Z,0.73
2023-01-20T20:59:15.212Z,0.50
2023-01-20T21:01:43.662Z,1.45
2023-01-20T21:04:12.498Z,2.90
2023-01-20T21:06:40.818Z,2.90
2023-01-20T21:09:10.030Z,0.88
2023-01-20T21:11:38.832Z,1.35
2023-01-20T21:14:08.148Z,1.10
2023-01-20T21:16:36.871Z,0.85
2023-01-20T21:19:05.991Z,0.50
2023-01-20T21:21:34.366Z,0.90
2023-01-20T21:24:02.694Z,0.50
2023-01-20T21:26:31.158Z,1.30
2023-01-20T21:29:04.629Z,1.40
2023-01-20T21:31:35.237Z,0.85
2023-01-20T21:34:04.523Z,0.40
2023-01-20T21:36:33.189Z,2.50
2023-01-20T21:39:01.719Z,1.42
2023-01-20T21:41:30.919Z,0.63
2023-01-20T21:44:17.538Z,0.90
2023-01-20T21:46:46.252Z,0.93
2023-01-20T21:49:32.795Z,1.80
2023-01-20T21:52:19.198Z,0.60
2023-01-20T21:54:47.643Z,0.73
2023-01-20T21:57:16.032Z,0.68
2023-01-20T21:59:44.714Z,0.40
2023-01-20T22:02:15.000Z,0.43
2023-01-20T22:04:43.902Z,0.60
2023-01-20T22:07:12.195Z,0.85
2023-01-20T22:09:40.891Z,1.13
2023-01-20T22:12:09.692Z,0.90
2023-01-20T22:14:38.923Z,1.10
2023-01-20T22:17:08.848Z,0.57
2023-01-20T22:19:38.082Z,0.40
2023-01-20T22:22:06.572Z,0.63
2023-01-20T22:24:35.145Z,0.52
2023-01-20T22:27:04.041Z,0.68
2023-01-20T22:29:33.664Z,0.70
2023-01-20T22:32:04.187Z,1.40
2023-01-20T22:34:32.759Z,1.20
2023-01-20T22:37:01.580Z,1.05
2023-01-20T22:39:30.393Z,1.65
2023-01-20T22:41:58.677Z,0.75
2023-01-20T22:44:27.012Z,0.57
2023-01-20T22:46:55.340Z,1.80
2023-01-20T22:49:23.627Z,2.13
2023-01-20T22:51:52.066Z,0.93
2023-01-20T22:54:20.403Z,0.60
2023-01-20T22:56:48.749Z,1.60
2023-01-20T22:59:17.187Z,0.90
2023-01-20T23:01:45.723Z,0.70
2023-01-20T23:04:14.030Z,0.68
2023-01-20T23:06:42.316Z,0.90
2023-01-20T23:09:13.750Z,1.13
2023-01-20T23:11:42.277Z,1.63
2023-01-20T23:14:13.693Z,2.38
2023-01-20T23:16:43.938Z,2.83
2023-01-20T23:19:13.088Z,2.15
2023-01-20T23:21:41.413Z,0.65
2023-01-20T23:24:10.418Z,0.47
2023-01-20T23:26:38.705Z,0.75
2023-01-20T23:29:06.993Z,0.90
2023-01-20T23:31:36.086Z,0.68
2023-01-20T23:34:04.501Z,2.10
2023-01-20T23:36:33.086Z,0.63
2023-01-20T23:39:01.390Z,0.50
2023-01-20T23:41:29.711Z,0.65
2023-01-20T23:43:58.092Z,1.65
2023-01-20T23:46:26.389Z,0.70
2023-01-20T23:48:54.645Z,1.27
2023-01-20T23:51:23.300Z,0.77
2023-01-20T23:53:51.653Z,0.73
2023-01-20T23:56:22.910Z,0.50
2023-01-20T23:58:52.088Z,1.05
